Wolf 59 — CGBP — position and weather

sailwx.info

Track history (hours):
 
Tides and Currents Weather Stations Pressure Air Temp Water Temp Dewpoint Dewpoint Depression Visibility Wind Speed Wind Dir Waves Ship Positions

Wolf 59

Last reported at 2014-Aug-28 16:29 UTC. Time now 2014-Sep-01 07:35 UTC.
Position N 48°26' W 123°27'.

Length 33 m; draft 2.6 m.

Type: Military. MMSI: 316011515.

Date/timePositionNaut miles runAvg speedWind from/ knotsBaromVisibWave heightAir tempDewpointWater temp
2014-Aug-28 16:29N 48°26' W 123°27'0 0.0
2014-Aug-28 15:31N 48°26' W 123°27'7 5.3
2014-Aug-28 14:16N 48°21' W 123°32'0 0.0
2014-Aug-28 13:32N 48°21' W 123°32'0 0.0
2014-Aug-28 12:32N 48°21' W 123°32'0 0.0
2014-Aug-28 11:32N 48°21' W 123°32'0 0.0
2014-Aug-28 10:32N 48°21' W 123°32'0 0.0
2014-Aug-28 09:33N 48°21' W 123°32'0 0.0
2014-Aug-28 08:33N 48°21' W 123°32'0 0.0
2014-Aug-28 07:29N 48°21' W 123°32'0 0.0
2014-Aug-28 06:33N 48°21' W 123°32'0 0.0
2014-Aug-28 05:33N 48°21' W 123°32'0 0.0
2014-Aug-28 04:28N 48°21' W 123°32'0 0.0
2014-Aug-28 03:32N 48°21' W 123°32'0 0.0
2014-Aug-28 02:30N 48°21' W 123°32'0 0.0
2014-Aug-28 01:30N 48°21' W 123°32'0 0.0
2014-Aug-28 00:30N 48°21' W 123°32'0 0.0
2014-Aug-27 23:33N 48°21' W 123°32'0 0.0
2014-Aug-27 22:33N 48°21' W 123°32'0 0.0
2014-Aug-27 21:33N 48°21' W 123°32'7 6.5
2014-Aug-27 20:33N 48°26' W 123°26'8 7.9
2014-Aug-27 19:33N 48°24' W 123°15'1817.4
2014-Aug-27 18:33N 48°42' W 123°15'1010.5
2014-Aug-27 17:33N 48°49' W 123°05'7 7.3
2014-Aug-27 16:33N 48°53' W 123°14'8 7.5
2014-Aug-27 15:34N 48°50' W 123°25'3 2.8
2014-Aug-27 14:20N 48°51' W 123°30'0 0.0
2014-Aug-27 12:20N 48°51' W 123°30'0 0.0
2014-Aug-27 11:08N 48°51' W 123°30'0 0.0
2014-Aug-27 10:32N 48°51' W 123°30'0 0.0
2014-Aug-27 09:20N 48°51' W 123°30'0 0.0
2014-Aug-27 08:32N 48°51' W 123°30'0 0.0
2014-Aug-27 07:29N 48°51' W 123°30'0 0.0
2014-Aug-27 03:14N 48°51' W 123°30'0 0.0
2014-Aug-27 02:32N 48°51' W 123°30'0 0.0
2014-Aug-26 23:21N 48°51' W 123°30'6 6.0
2014-Aug-26 22:25N 48°51' W 123°21'4 4.8
2014-Aug-26 21:33N 48°55' W 123°20'6 5.8
2014-Aug-26 20:34N 48°59' W 123°27'6 5.5
2014-Aug-26 19:33N 48°56' W 123°20'8 8.3
2014-Aug-26 18:33N 49°01' W 123°30'8 7.7
2014-Aug-26 17:33N 49°09' W 123°28'7 7.1
2014-Aug-26 16:33N 49°12' W 123°37'10 9.7
2014-Aug-26 15:32N 49°12' W 123°53'3 2.7
2014-Aug-26 14:26N 49°10' W 123°56'0 0.0
2014-Aug-26 13:29N 49°10' W 123°56'0 0.0
2014-Aug-26 12:29N 49°10' W 123°56'0 0.0
2014-Aug-26 11:32N 49°10' W 123°56'0 0.0
2014-Aug-26 10:32N 49°10' W 123°56'0 0.0
2014-Aug-26 09:26N 49°10' W 123°56'0 0.0
2014-Aug-26 08:32N 49°10' W 123°56'0 0.0
2014-Aug-26 07:26N 49°10' W 123°56'0 0.0
2014-Aug-26 06:32N 49°10' W 123°56'0 0.0
2014-Aug-26 05:32N 49°10' W 123°56'0 0.0
2014-Aug-26 04:23N 49°10' W 123°56'0 0.0
2014-Aug-26 03:29N 49°10' W 123°56'0 0.0
2014-Aug-26 01:26N 49°10' W 123°56'0 0.0
2014-Aug-26 00:22N 49°10' W 123°56'0 0.0
2014-Aug-25 23:33N 49°10' W 123°56'8 7.6
2014-Aug-25 22:30N 49°18' W 123°54'3 2.7
2014-Aug-25 21:33N 49°18' W 123°50'3 3.4
2014-Aug-25 20:33N 49°20' W 123°45'6 5.7
2014-Aug-25 19:31N 49°23' W 123°53'5 3.4
2014-Aug-25 18:12N 49°19' W 123°53'3 4.6
2014-Aug-25 17:33N 49°18' W 123°49'9 8.6
2014-Aug-25 16:33N 49°21' W 123°37'8 7.7
2014-Aug-25 15:34N 49°25' W 123°27'2 1.5
2014-Aug-25 14:14N 49°24' W 123°30'0 0.0
2014-Aug-25 13:17N 49°24' W 123°30'0 0.0
2014-Aug-25 12:21N 49°24' W 123°30'0 0.0
2014-Aug-25 11:27N 49°24' W 123°30'0 0.0
2014-Aug-25 00:15N 49°24' W 123°30'2 2.6
2014-Aug-24 23:22N 49°25' W 123°26'6 5.6
2014-Aug-24 22:16N 49°22' W 123°34'8 4.4
2014-Aug-24 20:26N 49°24' W 123°46'2 2.1
2014-Aug-24 19:22N 49°25' W 123°49'3 3.4
2014-Aug-24 18:26N 49°24' W 123°45'8 8.7
2014-Aug-24 17:33N 49°21' W 123°34'6 6.5
2014-Aug-24 16:33N 49°19' W 123°25'9 8.6
2014-Aug-24 15:33N 49°19' W 123°11'4 4.0
2014-Aug-24 14:31N 49°17' W 123°06'0 0.0
2014-Aug-24 13:31N 49°17' W 123°06'0 0.0
2014-Aug-24 12:31N 49°17' W 123°06'0 0.0
2014-Aug-24 11:31N 49°17' W 123°06'0 0.0
2014-Aug-24 10:31N 49°17' W 123°06'0 0.0
2014-Aug-24 09:31N 49°17' W 123°06'0 0.0
2014-Aug-24 08:31N 49°17' W 123°06'0 0.0
2014-Aug-24 07:31N 49°17' W 123°06'0 0.0
2014-Aug-24 06:34N 49°17' W 123°06'0 0.0
2014-Aug-24 05:33N 49°17' W 123°06'0 0.0
2014-Aug-24 04:33N 49°17' W 123°06'0 0.0
2014-Aug-24 03:33N 49°17' W 123°06'0 0.0
2014-Aug-24 02:33N 49°17' W 123°06'0 0.0
2014-Aug-24 01:33N 49°17' W 123°06'0 0.0
2014-Aug-24 00:33N 49°17' W 123°06'0 0.0
2014-Aug-23 23:33N 49°17' W 123°06'0 0.0
2014-Aug-23 22:33N 49°17' W 123°06'0 0.0
2014-Aug-23 21:33N 49°17' W 123°06'0 0.0
2014-Aug-23 20:33N 49°17' W 123°06'0 0.0
2014-Aug-23 19:32N 49°17' W 123°06'0 0.0
2014-Aug-23 03:31N 49°17' W 123°06'0 0.0
2014-Aug-23 02:31N 49°17' W 123°06'0 0.0
2014-Aug-23 01:31N 49°17' W 123°06'0 0.0
2014-Aug-23 00:33N 49°17' W 123°06'0 0.0
2014-Aug-22 23:33N 49°17' W 123°06'0 0.0
2014-Aug-22 22:33N 49°17' W 123°06'1 0.9
2014-Aug-22 21:33N 49°18' W 123°07'0 0.0
2014-Aug-22 20:33N 49°18' W 123°07'5 4.6
2014-Aug-22 19:34N 49°19' W 123°14'1413.7
2014-Aug-22 18:34N 49°18' W 123°35'6 5.8
2014-Aug-22 17:33N 49°22' W 123°42'9 7.1
2014-Aug-22 16:12N 49°19' W 123°55'10 4.7
2014-Aug-22 14:10N 49°16' W 124°10'0 0.0
2014-Aug-22 11:28N 49°16' W 124°10'0 0.0
2014-Aug-22 10:29N 49°16' W 124°10'0 0.0
2014-Aug-22 09:29N 49°16' W 124°10'0 0.0
2014-Aug-22 08:32N 49°16' W 124°10'0 0.0
2014-Aug-22 07:32N 49°16' W 124°10'0 0.0
2014-Aug-22 06:30N 49°16' W 124°10'0 0.0
2014-Aug-22 05:30N 49°16' W 124°10'0 0.0
2014-Aug-22 04:33N 49°16' W 124°10'0 0.0
2014-Aug-22 03:25N 49°16' W 124°10'0 0.0
2014-Aug-22 01:28N 49°16' W 124°10'0 0.0
2014-Aug-22 00:11N 49°16' W 124°10'0 0.1
2014-Aug-21 23:34N 49°16' W 124°10'6 6.0
2014-Aug-21 22:32N 49°20' W 124°03'8 8.1
2014-Aug-21 21:33N 49°23' W 124°14'41 1.8
2014-Aug-20 22:30N 49°55' W 124°55'18 9.2
2014-Aug-20 20:33N 49°41' W 124°37'9 8.3
2014-Aug-20 19:29N 49°33' W 124°31'10 9.3
2014-Aug-20 18:27N 49°26' W 124°21'11 8.5
2014-Aug-20 17:08N 49°22' W 124°05'5 7.8
2014-Aug-20 16:30N 49°19' W 123°59'8 8.1
2014-Aug-20 15:34N 49°12' W 123°54'2 1.1
2014-Aug-20 13:31N 49°10' W 123°56'0 0.0
2014-Aug-20 12:25N 49°10' W 123°56'0 0.0
2014-Aug-20 11:25N 49°10' W 123°56'0 0.0
2014-Aug-20 10:31N 49°10' W 123°56'0 0.0
2014-Aug-20 09:31N 49°10' W 123°56'0 0.0
2014-Aug-20 08:25N 49°10' W 123°56'0 0.0
2014-Aug-20 07:31N 49°10' W 123°56'0 0.0
2014-Aug-20 06:13N 49°10' W 123°56'0 0.0
2014-Aug-20 05:31N 49°10' W 123°56'0 0.0
2014-Aug-20 04:31N 49°10' W 123°56'0 0.0
2014-Aug-20 03:25N 49°10' W 123°56'0 0.0
2014-Aug-20 01:19N 49°10' W 123°56'0 0.1
2014-Aug-19 23:18N 49°10' W 123°56'6 8.3
2014-Aug-19 22:34N 49°15' W 123°49'3 3.3
2014-Aug-19 21:33N 49°15' W 123°44'5 5.3
2014-Aug-19 20:33N 49°13' W 123°37'9 9.3
2014-Aug-19 19:34N 49°04' W 123°34'8 8.0
2014-Aug-19 18:33N 48°58' W 123°25'9 8.9
2014-Aug-19 17:34N 48°54' W 123°14'8 7.6
2014-Aug-19 16:34N 48°49' W 123°04'8 7.8
2014-Aug-19 15:33N 48°43' W 123°12'3 0.9
2014-Aug-19 12:07N 48°45' W 123°15'0 0.0
2014-Aug-19 07:25N 48°45' W 123°15'0 0.0
2014-Aug-19 06:22N 48°45' W 123°15'0 0.0
2014-Aug-19 03:28N 48°45' W 123°15'0 0.0
2014-Aug-19 02:06N 48°45' W 123°15'0 0.0
2014-Aug-19 01:30N 48°45' W 123°15'0 0.0
2014-Aug-19 00:32N 48°45' W 123°15'3 3.2
2014-Aug-18 23:34N 48°42' W 123°14'1313.1
2014-Aug-18 22:33N 48°29' W 123°10'7 6.9
2014-Aug-18 21:33N 48°23' W 123°13'1 1.3
2014-Aug-18 20:34N 48°22' W 123°14'4 4.4
2014-Aug-18 19:33N 48°20' W 123°20'1 1.3
2014-Aug-18 18:33N 48°19' W 123°21'8 7.9
2014-Aug-18 17:33N 48°26' W 123°27'  
Track history (hours):
 
Tides and Currents Weather Stations Pressure Air Temp Water Temp Dewpoint Dewpoint Depression Visibility Wind Speed Wind Dir Waves Ship Positions

Wolf 59

Last reported at 2014-Aug-28 16:29 UTC. Time now 2014-Sep-01 07:35 UTC.
Position N 48°26' W 123°27'.

Length 33 m; draft 2.6 m.

Type: Military. MMSI: 316011515.

Date/timePositionNaut miles runAvg speedWind from/ knotsBaromVisibWave heightAir tempDewpointWater temp
2014-Aug-28 16:29N 48°26' W 123°27'0 0.0
2014-Aug-28 15:31N 48°26' W 123°27'7 5.3
2014-Aug-28 14:16N 48°21' W 123°32'0 0.0
2014-Aug-28 13:32N 48°21' W 123°32'0 0.0
2014-Aug-28 12:32N 48°21' W 123°32'0 0.0
2014-Aug-28 11:32N 48°21' W 123°32'0 0.0
2014-Aug-28 10:32N 48°21' W 123°32'0 0.0
2014-Aug-28 09:33N 48°21' W 123°32'0 0.0
2014-Aug-28 08:33N 48°21' W 123°32'0 0.0
2014-Aug-28 07:29N 48°21' W 123°32'0 0.0
2014-Aug-28 06:33N 48°21' W 123°32'0 0.0
2014-Aug-28 05:33N 48°21' W 123°32'0 0.0
2014-Aug-28 04:28N 48°21' W 123°32'0 0.0
2014-Aug-28 03:32N 48°21' W 123°32'0 0.0
2014-Aug-28 02:30N 48°21' W 123°32'0 0.0
2014-Aug-28 01:30N 48°21' W 123°32'0 0.0
2014-Aug-28 00:30N 48°21' W 123°32'0 0.0
2014-Aug-27 23:33N 48°21' W 123°32'0 0.0
2014-Aug-27 22:33N 48°21' W 123°32'0 0.0
2014-Aug-27 21:33N 48°21' W 123°32'7 6.5
2014-Aug-27 20:33N 48°26' W 123°26'8 7.9
2014-Aug-27 19:33N 48°24' W 123°15'1817.4
2014-Aug-27 18:33N 48°42' W 123°15'1010.5
2014-Aug-27 17:33N 48°49' W 123°05'7 7.3
2014-Aug-27 16:33N 48°53' W 123°14'8 7.5
2014-Aug-27 15:34N 48°50' W 123°25'3 2.8
2014-Aug-27 14:20N 48°51' W 123°30'0 0.0
2014-Aug-27 12:20N 48°51' W 123°30'0 0.0
2014-Aug-27 11:08N 48°51' W 123°30'0 0.0
2014-Aug-27 10:32N 48°51' W 123°30'0 0.0
2014-Aug-27 09:20N 48°51' W 123°30'0 0.0
2014-Aug-27 08:32N 48°51' W 123°30'0 0.0
2014-Aug-27 07:29N 48°51' W 123°30'0 0.0
2014-Aug-27 03:14N 48°51' W 123°30'0 0.0
2014-Aug-27 02:32N 48°51' W 123°30'0 0.0
2014-Aug-26 23:21N 48°51' W 123°30'6 6.0
2014-Aug-26 22:25N 48°51' W 123°21'4 4.8
2014-Aug-26 21:33N 48°55' W 123°20'6 5.8
2014-Aug-26 20:34N 48°59' W 123°27'6 5.5
2014-Aug-26 19:33N 48°56' W 123°20'8 8.3
2014-Aug-26 18:33N 49°01' W 123°30'8 7.7
2014-Aug-26 17:33N 49°09' W 123°28'7 7.1
2014-Aug-26 16:33N 49°12' W 123°37'10 9.7
2014-Aug-26 15:32N 49°12' W 123°53'3 2.7
2014-Aug-26 14:26N 49°10' W 123°56'0 0.0
2014-Aug-26 13:29N 49°10' W 123°56'0 0.0
2014-Aug-26 12:29N 49°10' W 123°56'0 0.0
2014-Aug-26 11:32N 49°10' W 123°56'0 0.0
2014-Aug-26 10:32N 49°10' W 123°56'0 0.0
2014-Aug-26 09:26N 49°10' W 123°56'0 0.0
2014-Aug-26 08:32N 49°10' W 123°56'0 0.0
2014-Aug-26 07:26N 49°10' W 123°56'0 0.0
2014-Aug-26 06:32N 49°10' W 123°56'0 0.0
2014-Aug-26 05:32N 49°10' W 123°56'0 0.0
2014-Aug-26 04:23N 49°10' W 123°56'0 0.0
2014-Aug-26 03:29N 49°10' W 123°56'0 0.0
2014-Aug-26 01:26N 49°10' W 123°56'0 0.0
2014-Aug-26 00:22N 49°10' W 123°56'0 0.0
2014-Aug-25 23:33N 49°10' W 123°56'8 7.6
2014-Aug-25 22:30N 49°18' W 123°54'3 2.7
2014-Aug-25 21:33N 49°18' W 123°50'3 3.4
2014-Aug-25 20:33N 49°20' W 123°45'6 5.7
2014-Aug-25 19:31N 49°23' W 123°53'5 3.4
2014-Aug-25 18:12N 49°19' W 123°53'3 4.6
2014-Aug-25 17:33N 49°18' W 123°49'9 8.6
2014-Aug-25 16:33N 49°21' W 123°37'8 7.7
2014-Aug-25 15:34N 49°25' W 123°27'2 1.5
2014-Aug-25 14:14N 49°24' W 123°30'0 0.0
2014-Aug-25 13:17N 49°24' W 123°30'0 0.0
2014-Aug-25 12:21N 49°24' W 123°30'0 0.0
2014-Aug-25 11:27N 49°24' W 123°30'0 0.0
2014-Aug-25 00:15N 49°24' W 123°30'2 2.6
2014-Aug-24 23:22N 49°25' W 123°26'6 5.6
2014-Aug-24 22:16N 49°22' W 123°34'8 4.4
2014-Aug-24 20:26N 49°24' W 123°46'2 2.1
2014-Aug-24 19:22N 49°25' W 123°49'3 3.4
2014-Aug-24 18:26N 49°24' W 123°45'8 8.7
2014-Aug-24 17:33N 49°21' W 123°34'6 6.5
2014-Aug-24 16:33N 49°19' W 123°25'9 8.6
2014-Aug-24 15:33N 49°19' W 123°11'4 4.0
2014-Aug-24 14:31N 49°17' W 123°06'0 0.0
2014-Aug-24 13:31N 49°17' W 123°06'0 0.0
2014-Aug-24 12:31N 49°17' W 123°06'0 0.0
2014-Aug-24 11:31N 49°17' W 123°06'0 0.0
2014-Aug-24 10:31N 49°17' W 123°06'0 0.0
2014-Aug-24 09:31N 49°17' W 123°06'0 0.0
2014-Aug-24 08:31N 49°17' W 123°06'0 0.0
2014-Aug-24 07:31N 49°17' W 123°06'0 0.0
2014-Aug-24 06:34N 49°17' W 123°06'0 0.0
2014-Aug-24 05:33N 49°17' W 123°06'0 0.0
2014-Aug-24 04:33N 49°17' W 123°06'0 0.0
2014-Aug-24 03:33N 49°17' W 123°06'0 0.0
2014-Aug-24 02:33N 49°17' W 123°06'0 0.0
2014-Aug-24 01:33N 49°17' W 123°06'0 0.0
2014-Aug-24 00:33N 49°17' W 123°06'0 0.0
2014-Aug-23 23:33N 49°17' W 123°06'0 0.0
2014-Aug-23 22:33N 49°17' W 123°06'0 0.0
2014-Aug-23 21:33N 49°17' W 123°06'0 0.0
2014-Aug-23 20:33N 49°17' W 123°06'0 0.0
2014-Aug-23 19:32N 49°17' W 123°06'0 0.0
2014-Aug-23 03:31N 49°17' W 123°06'0 0.0
2014-Aug-23 02:31N 49°17' W 123°06'0 0.0
2014-Aug-23 01:31N 49°17' W 123°06'0 0.0
2014-Aug-23 00:33N 49°17' W 123°06'0 0.0
2014-Aug-22 23:33N 49°17' W 123°06'0 0.0
2014-Aug-22 22:33N 49°17' W 123°06'1 0.9
2014-Aug-22 21:33N 49°18' W 123°07'0 0.0
2014-Aug-22 20:33N 49°18' W 123°07'5 4.6
2014-Aug-22 19:34N 49°19' W 123°14'1413.7
2014-Aug-22 18:34N 49°18' W 123°35'6 5.8
2014-Aug-22 17:33N 49°22' W 123°42'9 7.1
2014-Aug-22 16:12N 49°19' W 123°55'10 4.7
2014-Aug-22 14:10N 49°16' W 124°10'0 0.0
2014-Aug-22 11:28N 49°16' W 124°10'0 0.0
2014-Aug-22 10:29N 49°16' W 124°10'0 0.0
2014-Aug-22 09:29N 49°16' W 124°10'0 0.0
2014-Aug-22 08:32N 49°16' W 124°10'0 0.0
2014-Aug-22 07:32N 49°16' W 124°10'0 0.0
2014-Aug-22 06:30N 49°16' W 124°10'0 0.0
2014-Aug-22 05:30N 49°16' W 124°10'0 0.0
2014-Aug-22 04:33N 49°16' W 124°10'0 0.0
2014-Aug-22 03:25N 49°16' W 124°10'0 0.0
2014-Aug-22 01:28N 49°16' W 124°10'0 0.0
2014-Aug-22 00:11N 49°16' W 124°10'0 0.1
2014-Aug-21 23:34N 49°16' W 124°10'6 6.0
2014-Aug-21 22:32N 49°20' W 124°03'8 8.1
2014-Aug-21 21:33N 49°23' W 124°14'41 1.8
2014-Aug-20 22:30N 49°55' W 124°55'18 9.2
2014-Aug-20 20:33N 49°41' W 124°37'9 8.3
2014-Aug-20 19:29N 49°33' W 124°31'10 9.3
2014-Aug-20 18:27N 49°26' W 124°21'11 8.5
2014-Aug-20 17:08N 49°22' W 124°05'5 7.8
2014-Aug-20 16:30N 49°19' W 123°59'8 8.1
2014-Aug-20 15:34N 49°12' W 123°54'2 1.1
2014-Aug-20 13:31N 49°10' W 123°56'0 0.0
2014-Aug-20 12:25N 49°10' W 123°56'0 0.0
2014-Aug-20 11:25N 49°10' W 123°56'0 0.0
2014-Aug-20 10:31N 49°10' W 123°56'0 0.0
2014-Aug-20 09:31N 49°10' W 123°56'0 0.0
2014-Aug-20 08:25N 49°10' W 123°56'0 0.0
2014-Aug-20 07:31N 49°10' W 123°56'0 0.0
2014-Aug-20 06:13N 49°10' W 123°56'0 0.0
2014-Aug-20 05:31N 49°10' W 123°56'0 0.0
2014-Aug-20 04:31N 49°10' W 123°56'0 0.0
2014-Aug-20 03:25N 49°10' W 123°56'0 0.0
2014-Aug-20 01:19N 49°10' W 123°56'0 0.1
2014-Aug-19 23:18N 49°10' W 123°56'6 8.3
2014-Aug-19 22:34N 49°15' W 123°49'3 3.3
2014-Aug-19 21:33N 49°15' W 123°44'5 5.3
2014-Aug-19 20:33N 49°13' W 123°37'9 9.3
2014-Aug-19 19:34N 49°04' W 123°34'8 8.0
2014-Aug-19 18:33N 48°58' W 123°25'9 8.9
2014-Aug-19 17:34N 48°54' W 123°14'8 7.6
2014-Aug-19 16:34N 48°49' W 123°04'8 7.8
2014-Aug-19 15:33N 48°43' W 123°12'3 0.9
2014-Aug-19 12:07N 48°45' W 123°15'0 0.0
2014-Aug-19 07:25N 48°45' W 123°15'0 0.0
2014-Aug-19 06:22N 48°45' W 123°15'0 0.0
2014-Aug-19 03:28N 48°45' W 123°15'0 0.0
2014-Aug-19 02:06N 48°45' W 123°15'0 0.0
2014-Aug-19 01:30N 48°45' W 123°15'0 0.0
2014-Aug-19 00:32N 48°45' W 123°15'3 3.2
2014-Aug-18 23:34N 48°42' W 123°14'1313.1
2014-Aug-18 22:33N 48°29' W 123°10'7 6.9
2014-Aug-18 21:33N 48°23' W 123°13'1 1.3
2014-Aug-18 20:34N 48°22' W 123°14'4 4.4
2014-Aug-18 19:33N 48°20' W 123°20'1 1.3
2014-Aug-18 18:33N 48°19' W 123°21'8 7.9
2014-Aug-18 17:33N 48°26' W 123°27'  

Dump ship's entire track history